Aérodrome :
LOGIN :

S'inscrire | Disclaimer

   EN    FR    IT 

 










Légende :    VFR   VFR Marginal   IFR   IFR Intensif   IFR Très Intensif
Visi : 
Plafond : 
>= 8 km
>= 3000ft
5 à 8 km
1000 à 3000 ft
1500m à 5 km
500 à 1000 ft
800 à 1500m
200 à 500 ft
< 800m
< 200 ft
Symboles :   Orages  Brouillard  Fortes neiges  Fortes précipitations  Vent > 20 kt
SIGMETs :   Divers  Orages  Givrage  Turbulence  Onde Orograph.  Cendres Volcan.






- Altitude de l'aérodrome : 646 ft
- Code IATA : VNO


EYVI - Vilnius int.

DERNIER METAR :
  • 280020Z 24010KT 9999 BKN033 BKN055 M01/M05 Q0997 R19/1///95 NOSIG

METARs EXPIRÉS :
  • 272350Z 24012KT 9999 -SN SCT028 BKN048 M01/M05 Q0996 R19/1///95 NOSIG
  • 272320Z 23009KT 9999 -SN OVC031 M01/M05 Q0996 R19/1///95 NOSIG
  • 272250Z 23009KT 9999 -SN OVC040 M01/M05 Q0996 R19/1///95 NOSIG
  • 272220Z 23008KT 9999 -SN OVC044 M01/M05 Q0996 R19/1///95 NOSIG
  • 272150Z 24010KT 9999 BKN049 M01/M05 Q0996 R19/1///95 NOSIG

TAF TAF EYVI
Valide du 28 à 00h jusqu'au 29 à 00h UTC


272303Z 2800/2824 24012KT 9000 OVC020
PROB40
TEMPO 2800/2806 3000 SN BR BKN005
TEMPO 2806/2809 3000 SHSN BKN005 BKN015CB
TEMPO 2809/2815 3000 SHSNRA BKN005 BKN015CB



MET'MAP, la Météo Aéronautique d'un coup d'oeil ! - Copyright ORBIFLY Décembre 2007 - Disclaimer

ORBIFLY MET'MAP TEAM :

Programmation & Développement : Alexandra Zaïnal
Sur une idée originale de : Baudouin d'Aumeries
Assistance à la programmation : Marc-Olivier Méhu
Soutien technique & logistique : Manuel Goepfert

Contact : metmap@orbifly.com




SOURCES & CREDITS :

   NOAA